Time;durP1;ratioP1;P1;durP2;ratioP2;P2;SDS_P1;SDS_P2;PMS_P1;PMS_P2;Temp;Humidity;BMP_temperature;BMP_pressure;BME280_temperature;BME280_humidity;BME280_pressure;Samples;Min_cycle;Max_cycle;Signal;HPM_P1;HPM_P2
2022/05/18 00:00:34;;;;;;;13.50;4.88;;;;;;;22.77;40.34;101464.16;4934529;28;20081;-52
2022/05/18 00:03:04;;;;;;;14.95;4.72;;;;;;;22.59;40.33;101470.94;4934127;29;20019;-51
2022/05/18 00:05:36;;;;;;;15.38;4.47;;;;;;;22.83;39.32;101460.31;4934390;28;20027;-48
2022/05/18 00:08:02;;;;;;;11.05;4.32;;;;;;;22.73;39.34;101458.41;4934604;29;20028;-49
2022/05/18 00:10:28;;;;;;;12.38;4.18;;;;;;;22.90;39.37;101460.91;4934447;29;20110;-51
2022/05/18 00:12:55;;;;;;;19.55;5.07;;;;;;;22.96;38.64;101450.78;4933648;29;20027;-51
2022/05/18 00:15:23;;;;;;;17.02;4.85;;;;;;;22.88;38.88;101454.91;4946993;28;20571;-52
2022/05/18 00:17:50;;;;;;;16.27;4.80;;;;;;;22.60;40.23;101450.78;4946815;28;20042;-55
2022/05/18 00:20:18;;;;;;;17.95;5.22;;;;;;;22.72;39.19;101445.84;4937482;28;20036;-55
2022/05/18 00:22:50;;;;;;;15.15;4.95;;;;;;;21.88;40.44;101439.66;4937582;28;20027;-55
2022/05/18 00:25:19;;;;;;;17.98;4.85;;;;;;;21.84;41.05;101433.09;4949429;28;20031;-55
2022/05/18 00:27:45;;;;;;;16.77;5.25;;;;;;;22.03;40.46;101432.59;4937051;28;20480;-56
2022/05/18 00:30:13;;;;;;;16.13;5.88;;;;;;;22.14;40.84;101431.56;4942846;28;20388;-55
2022/05/18 00:32:39;;;;;;;15.65;5.80;;;;;;;21.96;40.65;101430.13;4941874;29;20051;-55
2022/05/18 00:35:06;;;;;;;21.83;6.22;;;;;;;21.66;40.96;101432.75;4953404;28;20249;-55
2022/05/18 00:37:33;;;;;;;16.40;5.22;;;;;;;22.02;41.68;101423.59;4952117;28;20436;-55
2022/05/18 00:39:59;;;;;;;16.77;4.70;;;;;;;21.80;41.42;101415.63;4953610;28;20027;-55
2022/05/18 00:42:28;;;;;;;14.80;4.53;;;;;;;21.96;42.04;101412.97;4953605;28;20036;-55
2022/05/18 00:44:55;;;;;;;13.90;4.20;;;;;;;22.23;41.04;101410.88;4952674;28;20040;-55
2022/05/18 00:47:21;;;;;;;17.63;5.35;;;;;;;22.26;40.67;101402.16;4953675;28;20036;-55
2022/05/18 00:49:53;;;;;;;18.40;4.95;;;;;;;22.40;40.89;101397.81;4953452;28;20023;-55
2022/05/18 00:52:24;;;;;;;17.48;5.22;;;;;;;22.52;40.67;101404.91;4953586;28;20384;-55
2022/05/18 00:54:52;;;;;;;17.77;5.07;;;;;;;22.19;41.91;101408.97;4953232;28;20023;-55
2022/05/18 00:57:26;;;;;;;15.65;5.03;;;;;;;22.24;41.48;101396.16;4952031;28;20460;-55
2022/05/18 01:00:01;;;;;;;18.83;5.57;;;;;;;22.15;41.69;101395.03;4932970;29;20036;-55
2022/05/18 01:02:32;;;;;;;19.52;5.80;;;;;;;21.80;41.51;101393.84;4934489;28;20055;-55
2022/05/18 01:05:01;;;;;;;16.83;5.30;;;;;;;22.11;42.90;101399.41;4933951;28;20031;-55
2022/05/18 01:07:29;;;;;;;17.60;4.93;;;;;;;;;;4948231;28;20053;-55
2022/05/18 01:09:55;;;;;;;21.90;5.60;;;;;;;21.34;42.19;101390.94;4953417;28;20039;-55
2022/05/18 01:12:22;;;;;;;14.77;4.93;;;;;;;21.77;41.98;101402.56;4953509;28;20059;-55
2022/05/18 01:14:56;;;;;;;21.77;5.32;;;;;;;21.68;41.93;101404.16;4952919;28;20042;-55
2022/05/18 01:17:30;;;;;;;24.20;6.40;;;;;;;21.72;41.13;101407.16;4953578;28;20420;-55
2022/05/18 01:19:59;;;;;;;22.13;4.90;;;;;;;21.63;41.40;101409.56;4953426;28;20262;-55
2022/05/18 01:23:03;;;;;;;15.68;4.78;;;;;;;21.45;41.60;101404.59;4953493;28;20027;-55
2022/05/18 01:25:52;;;;;;;16.42;5.30;;;;;;;21.35;42.33;101403.44;4959584;28;20035;-55
2022/05/18 01:28:20;;;;;;;19.67;6.03;;;;;;;21.43;41.80;101409.47;4956517;28;20023;-56
2022/05/18 01:30:48;;;;;;;14.38;5.45;;;;;;;21.04;41.65;101398.88;4956465;28;20287;-55
2022/05/18 01:33:17;;;;;;;13.98;4.40;;;;;;;21.25;42.81;101405.25;4956655;28;20034;-56
2022/05/18 01:35:46;;;;;;;19.45;5.28;;;;;;;21.55;41.72;101404.66;4956140;28;20491;-55
2022/05/18 01:38:13;;;;;;;20.55;5.40;;;;;;;21.70;42.34;101423.75;4948109;28;20058;-56
2022/05/18 01:40:49;;;;;;;16.98;5.57;;;;;;;21.52;42.38;101418.78;4946388;28;20027;-55
2022/05/18 01:43:27;;;;;;;16.73;5.32;;;;;;;21.65;42.27;101418.28;4950365;28;20028;-55
2022/05/18 01:45:57;;;;;;;15.90;5.22;;;;;;;21.58;41.64;101413.09;4936476;29;20055;-55
2022/05/18 01:48:35;;;;;;;20.05;5.72;;;;;;;21.70;42.41;101415.59;4964131;28;20055;-56
2022/05/18 01:51:03;;;;;;;17.90;5.45;;;;;;;21.95;41.85;101416.78;4955973;28;20488;-56
2022/05/18 01:53:30;;;;;;;18.98;5.32;;;;;;;22.03;41.08;101418.97;4955929;28;20035;-55
2022/05/18 01:55:57;;;;;;;17.70;5.55;;;;;;;21.90;41.07;101419.50;4957438;28;20491;-55
2022/05/18 01:58:23;;;;;;;24.67;5.82;;;;;;;21.97;40.74;101422.78;4956006;28;20039;-56
2022/05/18 02:00:51;;;;;;;19.70;5.47;;;;;;;21.77;41.68;101426.28;4955572;28;20058;-55
2022/05/18 02:03:19;;;;;;;17.40;5.05;;;;;;;21.98;40.99;101424.41;4967266;28;20030;-56
2022/05/18 02:05:45;;;;;;;17.55;5.55;;;;;;;21.38;42.61;101420.34;4944893;28;20035;-55
2022/05/18 02:08:13;;;;;;;22.45;5.72;;;;;;;21.31;42.75;101415.94;4936972;28;20526;-56
2022/05/18 02:10:39;;;;;;;20.70;4.97;;;;;;;21.76;42.13;101417.25;4967089;28;20031;-55
2022/05/18 02:13:06;;;;;;;19.67;5.63;;;;;;;21.99;41.43;101417.91;4936762;29;20027;-56
2022/05/18 02:15:34;;;;;;;21.35;5.30;;;;;;;22.19;40.68;101419.88;4950282;29;20090;-56
2022/05/18 02:18:01;;;;;;;17.10;5.13;;;;;;;22.13;40.78;101419.03;4974584;28;20031;-56
2022/05/18 02:20:27;;;;;;;17.52;5.45;;;;;;;22.12;40.98;101417.41;4974764;28;20030;-53
2022/05/18 02:22:53;;;;;;;15.05;5.32;;;;;;;22.29;40.32;101423.44;4970281;28;20027;-51
2022/05/18 02:25:21;;;;;;;15.05;4.38;;;;;;;22.18;40.24;101421.78;4937489;28;20042;-49
2022/05/18 02:27:48;;;;;;;18.67;5.65;;;;;;;21.85;41.06;101426.56;4942442;28;20122;-52
2022/05/18 02:30:15;;;;;;;19.60;5.70;;;;;;;21.82;40.83;101427.09;4950792;28;20119;-51
2022/05/18 02:32:41;;;;;;;20.33;5.63;;;;;;;21.78;40.79;101433.34;4949794;28;20682;-51
2022/05/18 02:35:09;;;;;;;19.35;5.55;;;;;;;21.61;41.78;101431.66;4938414;28;20031;-51
2022/05/18 02:37:35;;;;;;;17.55;5.63;;;;;;;21.45;42.53;101434.56;4936051;29;20028;-49
2022/05/18 02:40:02;;;;;;;19.60;5.53;;;;;;;21.09;43.14;101426.13;4947566;28;20031;-50
2022/05/18 02:42:29;;;;;;;17.48;5.25;;;;;;;21.10;43.08;101419.63;4955288;28;20027;-50
2022/05/18 02:44:55;;;;;;;17.10;5.82;;;;;;;20.83;43.11;101428.66;4972718;28;20093;-50
2022/05/18 02:47:23;;;;;;;22.75;6.53;;;;;;;20.49;44.07;101430.84;4953375;28;20086;-52
2022/05/18 02:49:49;;;;;;;21.65;5.93;;;;;;;20.50;44.13;101428.94;4955114;28;20027;-49
2022/05/18 02:52:15;;;;;;;19.13;5.53;;;;;;;20.31;44.49;101437.41;4945001;28;20520;-51
2022/05/18 02:57:26;;;;;;;22.10;6.07;;;;;;;20.09;45.17;101436.63;4947960;28;20503;-52
2022/05/18 02:59:52;;;;;;;26.42;6.25;;;;;;;19.84;46.01;101437.16;4953258;28;20035;-49
2022/05/18 03:02:19;;;;;;;19.98;5.78;;;;;;;19.53;46.44;101439.44;4941469;28;20035;-49
2022/05/18 03:04:45;;;;;;;28.85;6.57;;;;;;;19.16;46.94;101427.53;4963820;28;20035;-52
2022/05/18 03:07:12;;;;;;;25.42;7.25;;;;;;;18.81;48.37;101433.19;4955253;28;20035;-50
2022/05/18 03:09:38;;;;;;;17.95;5.55;;;;;;;18.62;49.16;101432.59;4954896;28;20118;-50
2022/05/18 03:12:05;;;;;;;28.17;6.15;;;;;;;18.54;49.56;101441.94;4953190;28;20030;-51
2022/05/18 03:14:32;;;;;;;22.88;6.25;;;;;;;18.53;49.54;101440.28;4953325;28;20027;-52
2022/05/18 03:17:01;;;;;;;27.92;6.90;;;;;;;18.40;49.54;101440.59;4947926;28;20539;-52
2022/05/18 03:19:28;;;;;;;17.65;5.78;;;;;;;18.20;49.83;101444.56;4944250;28;20531;-53
2022/05/18 03:24:39;;;;;;;28.42;6.65;;;;;;;18.12;50.35;101447.69;4944259;29;20050;-50
2022/05/18 03:27:05;;;;;;;28.13;6.32;;;;;;;18.01;50.64;101450.44;4954380;28;20035;-51
2022/05/18 03:29:33;;;;;;;25.98;6.43;;;;;;;18.02;50.24;101452.88;4939434;28;20028;-52
2022/05/18 03:31:59;;;;;;;25.50;6.38;;;;;;;18.06;50.43;101453.25;4954240;28;20035;-51
2022/05/18 03:34:26;;;;;;;27.08;7.20;;;;;;;17.93;51.09;101457.88;4954076;28;20038;-52
2022/05/18 03:36:52;;;;;;;23.48;6.53;;;;;;;17.83;51.76;101457.66;4954442;28;20492;-51
2022/05/18 03:39:18;;;;;;;23.67;6.15;;;;;;;17.65;52.42;101455.88;4966659;28;20046;-51
2022/05/18 03:41:44;;;;;;;25.58;7.00;;;;;;;17.62;52.77;101461.78;4953991;28;20527;-52
2022/05/18 03:44:11;;;;;;;26.52;5.85;;;;;;;17.33;53.98;101458.16;4954183;28;20058;-51
2022/05/18 03:46:39;;;;;;;18.35;5.80;;;;;;;17.32;53.71;101455.66;4953885;28;20182;-51
2022/05/18 03:49:06;;;;;;;32.88;7.15;;;;;;;17.37;53.31;101466.63;4954221;28;20070;-50
2022/05/18 03:51:33;;;;;;;23.38;7.25;;;;;;;17.23;53.61;101471.44;4953969;28;20507;-50
2022/05/18 03:54:00;;;;;;;31.90;7.65;;;;;;;17.12;53.97;101472.28;4953723;28;20027;-51
2022/05/18 03:56:26;;;;;;;30.20;7.15;;;;;;;17.07;53.59;101467.56;4956819;28;20111;-52
2022/05/18 03:58:52;;;;;;;27.65;7.72;;;;;;;17.06;53.14;101479.44;4954915;28;20440;-51
2022/05/18 04:01:19;;;;;;;25.98;7.03;;;;;;;16.93;52.71;101473.41;4953240;28;20027;-51
2022/05/18 04:03:46;;;;;;;20.95;6.55;;;;;;;16.83;52.80;101482.94;4953631;28;20031;-51
2022/05/18 04:06:15;;;;;;;34.15;7.03;;;;;;;16.76;53.04;101478.66;4953754;28;20023;-50
2022/05/18 04:08:41;;;;;;;21.92;7.10;;;;;;;16.73;52.76;101487.25;4953464;28;20019;-51
2022/05/18 04:11:08;;;;;;;22.27;6.30;;;;;;;16.69;52.87;101488.72;4956540;28;20051;-51
2022/05/18 04:13:35;;;;;;;23.00;6.60;;;;;;;16.67;53.11;101486.25;4953484;28;20106;-51
2022/05/18 04:16:01;;;;;;;24.00;6.95;;;;;;;16.62;53.49;101500.47;4953826;28;20035;-51
2022/05/18 04:18:27;;;;;;;26.65;6.28;;;;;;;16.52;53.68;101493.97;4954024;28;20035;-52
2022/05/18 04:20:55;;;;;;;32.45;7.63;;;;;;;16.37;53.68;101503.28;4952751;28;20038;-51
2022/05/18 04:23:25;;;;;;;27.30;6.03;;;;;;;16.39;53.97;101504.97;4934415;28;20038;-49
2022/05/18 04:25:52;;;;;;;30.00;7.45;;;;;;;16.42;54.26;101516.13;4945561;28;20468;-51
2022/05/18 04:28:18;;;;;;;27.45;7.47;;;;;;;16.08;56.05;101515.72;4967381;28;20113;-51
2022/05/18 04:30:47;;;;;;;20.77;5.85;;;;;;;15.80;56.62;101516.25;4964734;28;20077;-52
2022/05/18 04:33:19;;;;;;;24.05;7.20;;;;;;;15.79;56.67;101517.28;4953617;28;20476;-52
2022/05/18 04:35:49;;;;;;;18.88;5.88;;;;;;;15.68;56.75;101528.00;4953813;28;20027;-51
2022/05/18 04:38:16;;;;;;;28.55;7.30;;;;;;;15.81;56.36;101517.06;4953464;28;20028;-51
2022/05/18 04:40:42;;;;;;;22.17;6.50;;;;;;;15.50;57.94;101526.06;4953710;28;20480;-50
2022/05/18 04:43:08;;;;;;;33.83;6.85;;;;;;;15.34;58.26;101532.84;4953100;28;20039;-49
2022/05/18 04:45:36;;;;;;;30.23;7.10;;;;;;;15.36;58.24;101536.13;4953462;28;20058;-50
2022/05/18 04:48:02;;;;;;;27.80;6.05;;;;;;;15.41;58.02;101530.91;4953376;28;20073;-51
2022/05/18 04:50:29;;;;;;;25.50;6.75;;;;;;;15.42;57.72;101529.84;4953316;28;20031;-52
2022/05/18 04:52:55;;;;;;;27.33;6.53;;;;;;;15.50;57.31;101531.47;4945977;28;20110;-51
2022/05/18 04:55:21;;;;;;;28.70;8.10;;;;;;;15.45;57.47;101534.00;4936883;28;20114;-49
2022/05/18 04:57:47;;;;;;;28.02;9.65;;;;;;;15.51;57.27;101533.94;4972694;28;20360;-52
2022/05/18 05:00:14;;;;;;;29.60;8.85;;;;;;;15.50;57.37;101543.09;4973723;28;20098;-49
2022/05/18 05:02:41;;;;;;;29.13;7.88;;;;;;;15.38;57.94;101544.00;4976469;28;20061;-50
2022/05/18 05:05:10;;;;;;;32.40;7.65;;;;;;;15.43;58.25;101538.78;4964273;28;20038;-51
2022/05/18 05:07:36;;;;;;;37.88;8.50;;;;;;;15.42;58.13;101540.66;4957233;28;20094;-50
2022/05/18 05:10:04;;;;;;;34.13;7.78;;;;;;;15.27;58.43;101548.28;4956979;28;20023;-51
2022/05/18 05:12:30;;;;;;;30.35;7.25;;;;;;;15.22;58.35;101543.53;4964299;28;20488;-50
2022/05/18 05:14:56;;;;;;;31.88;7.30;;;;;;;15.09;58.60;101545.47;4955018;28;20391;-51
2022/05/18 05:17:22;;;;;;;28.75;7.47;;;;;;;15.03;58.90;101541.78;4939243;28;20556;-52
2022/05/18 05:19:49;;;;;;;28.73;7.10;;;;;;;15.07;58.49;101548.41;4959001;28;20400;-50
2022/05/18 05:22:15;;;;;;;19.58;5.72;;;;;;;14.97;58.61;101548.88;4956611;28;20031;-50
2022/05/18 05:24:41;;;;;;;30.55;7.53;;;;;;;15.00;58.44;101551.16;4956291;28;20075;-50
2022/05/18 05:27:07;;;;;;;28.02;7.25;;;;;;;15.01;58.24;101549.28;4956348;28;20027;-51
2022/05/18 05:29:34;;;;;;;32.95;7.45;;;;;;;14.99;58.44;101545.97;4956637;28;20023;-50
2022/05/18 05:32:08;;;;;;;31.73;7.72;;;;;;;15.01;58.39;101550.09;4961211;28;20549;-50
2022/05/18 05:34:35;;;;;;;26.85;7.45;;;;;;;14.97;58.45;101556.97;4975770;28;20038;-52
2022/05/18 05:37:02;;;;;;;37.58;7.53;;;;;;;15.00;58.08;101559.25;4976113;28;20030;-50
2022/05/18 05:39:28;;;;;;;33.70;8.18;;;;;;;15.01;58.18;101560.88;4958467;28;20027;-50
2022/05/18 05:41:54;;;;;;;24.80;7.15;;;;;;;14.91;58.80;101568.63;4973914;28;20047;-50
2022/05/18 05:44:21;;;;;;;26.48;7.15;;;;;;;14.77;58.78;101565.19;4975375;28;20400;-52
2022/05/18 05:46:47;;;;;;;24.80;8.02;;;;;;;14.67;59.10;101572.91;4940813;28;20389;-51
2022/05/18 05:49:14;;;;;;;27.30;7.10;;;;;;;14.60;59.40;101574.78;4958486;28;20035;-52
2022/05/18 05:51:40;;;;;;;26.20;6.88;;;;;;;14.35;60.20;101568.47;4959155;28;20015;-51
2022/05/18 05:54:07;;;;;;;32.10;7.30;;;;;;;14.33;60.48;101562.47;4975506;28;20031;-52
2022/05/18 05:56:35;;;;;;;27.73;7.30;;;;;;;13.98;61.49;101560.91;4960884;28;20508;-51
2022/05/18 05:59:02;;;;;;;32.58;7.45;;;;;;;14.06;61.35;101567.94;4955907;28;20015;-51
2022/05/18 06:01:28;;;;;;;27.10;7.57;;;;;;;14.10;61.00;101565.63;4955792;28;20034;-48
2022/05/18 06:03:54;;;;;;;31.98;7.55;;;;;;;14.09;61.20;101567.50;4954720;28;20034;-51
2022/05/18 06:06:21;;;;;;;31.40;7.53;;;;;;;13.93;61.86;101567.94;4955937;28;20353;-49
2022/05/18 06:08:47;;;;;;;25.45;6.82;;;;;;;13.90;61.91;101571.09;4955782;28;20035;-51
2022/05/18 06:11:13;;;;;;;30.80;6.97;;;;;;;13.67;62.77;101566.16;4954611;28;20555;-51
2022/05/18 06:13:40;;;;;;;35.10;8.02;;;;;;;13.74;62.51;101577.72;4955507;28;20054;-51
2022/05/18 06:16:08;;;;;;;26.60;7.93;;;;;;;13.56;63.01;101566.78;4955994;28;20019;-50
2022/05/18 06:18:35;;;;;;;26.25;6.80;;;;;;;13.70;62.76;101580.00;4955379;28;20114;-51
2022/05/18 06:21:02;;;;;;;28.10;7.70;;;;;;;13.78;62.31;101568.22;4955751;28;20439;-51
2022/05/18 06:23:30;;;;;;;26.20;8.02;;;;;;;13.78;62.19;101576.28;4971382;28;20030;-50
2022/05/18 06:26:05;;;;;;;29.15;7.18;;;;;;;13.59;63.02;101577.94;4975035;28;20035;-48
2022/05/18 06:28:32;;;;;;;30.02;7.43;;;;;;;13.68;62.59;101583.94;4974817;28;20049;-51
2022/05/18 06:30:58;;;;;;;40.65;7.47;;;;;;;13.70;62.45;101580.00;4956564;28;20023;-51
2022/05/18 06:33:25;;;;;;;25.48;7.13;;;;;;;13.72;62.47;101577.13;4955213;28;20066;-51
2022/05/18 06:35:51;;;;;;;33.50;7.78;;;;;;;13.72;62.42;101582.50;4955289;28;20064;-49
2022/05/18 06:38:19;;;;;;;31.77;6.90;;;;;;;13.77;62.03;101574.63;4955452;28;20067;-49
2022/05/18 06:43:30;;;;;;;33.85;8.32;;;;;;;13.37;62.86;101585.38;4955578;29;20042;-51
2022/05/18 06:45:58;;;;;;;30.67;7.05;;;;;;;13.26;63.03;101588.69;4953946;28;20551;-51
2022/05/18 06:48:24;;;;;;;26.95;6.78;;;;;;;13.39;62.66;101595.97;4954124;28;20396;-51
2022/05/18 06:50:50;;;;;;;32.03;7.03;;;;;;;13.42;62.27;101582.06;4952219;28;20114;-50
2022/05/18 06:53:17;;;;;;;26.55;7.40;;;;;;;13.30;62.67;101576.50;4953655;28;20031;-51
2022/05/18 06:55:43;;;;;;;25.77;7.53;;;;;;;13.31;62.64;101572.75;4954019;28;20075;-51
2022/05/18 06:58:09;;;;;;;27.05;7.57;;;;;;;13.25;62.76;101567.38;4954090;28;20481;-50
2022/05/18 07:00:36;;;;;;;31.00;6.63;;;;;;;13.19;62.85;101579.75;4953490;28;20023;-51
2022/05/18 07:03:02;;;;;;;30.05;7.00;;;;;;;13.17;63.15;101579.97;4953632;28;20632;-51
2022/05/18 07:05:28;;;;;;;35.15;7.28;;;;;;;13.20;62.88;101584.94;4953843;28;20114;-51
2022/05/18 07:07:54;;;;;;;26.80;7.25;;;;;;;13.05;63.55;101589.69;4954729;28;20035;-51
2022/05/18 07:10:21;;;;;;;32.13;7.18;;;;;;;13.05;63.53;101589.69;4945411;28;20035;-51
2022/05/18 07:12:47;;;;;;;26.63;7.15;;;;;;;13.09;63.10;101593.59;4951497;28;20027;-51
2022/05/18 07:15:13;;;;;;;32.38;8.65;;;;;;;12.98;63.64;101585.31;4945376;28;20031;-49
2022/05/18 07:17:41;;;;;;;34.40;7.80;;;;;;;12.90;63.93;101586.34;4947892;28;20035;-52
2022/05/18 07:20:08;;;;;;;26.38;7.65;;;;;;;13.02;63.47;101583.88;4934230;28;20086;-51
2022/05/18 07:22:34;;;;;;;22.85;6.82;;;;;;;12.83;63.69;101593.56;4936441;29;20074;-49
2022/05/18 07:25:00;;;;;;;28.33;7.85;;;;;;;12.64;64.44;101595.13;4932676;28;20040;-51
2022/05/18 07:27:26;;;;;;;31.75;7.95;;;;;;;12.76;63.99;101590.81;4935322;28;20028;-50
2022/05/18 07:29:53;;;;;;;25.33;7.75;;;;;;;12.73;64.45;101577.00;4936715;29;20030;-50
2022/05/18 07:32:19;;;;;;;32.47;7.72;;;;;;;12.81;63.89;101579.47;4936284;28;20073;-50
2022/05/18 07:34:47;;;;;;;28.38;7.88;;;;;;;12.89;63.89;101590.88;4936620;29;20035;-51
2022/05/18 07:37:15;;;;;;;29.33;7.18;;;;;;;12.73;64.22;101590.41;4933951;29;20107;-50
2022/05/18 07:39:43;;;;;;;25.00;6.82;;;;;;;12.73;64.27;101591.25;4941306;29;20079;-50
2022/05/18 07:42:10;;;;;;;33.95;7.88;;;;;;;12.69;64.60;101587.28;4944935;28;20032;-51
2022/05/18 07:44:37;;;;;;;28.10;7.45;;;;;;;12.86;63.78;101585.91;4938382;28;20855;-51
2022/05/18 07:47:06;;;;;;;36.05;7.60;;;;;;;12.77;64.18;101588.97;4952369;28;20082;-50
2022/05/18 07:49:41;;;;;;;22.13;6.70;;;;;;;12.85;64.04;101588.78;4951623;28;20031;-50
2022/05/18 07:52:07;;;;;;;30.65;7.57;;;;;;;12.55;65.13;101588.28;4951915;28;20031;-49
2022/05/18 07:54:34;;;;;;;37.45;8.10;;;;;;;12.51;65.70;101587.03;4949126;29;20564;-50
2022/05/18 07:57:01;;;;;;;39.47;8.00;;;;;;;12.77;64.79;101583.59;4947049;28;20480;-49
2022/05/18 07:59:27;;;;;;;27.25;6.70;;;;;;;12.58;65.58;101587.88;4936026;28;20524;-52
2022/05/18 08:01:53;;;;;;;26.02;7.20;;;;;;;12.61;65.60;101601.75;4934980;28;20110;-51
2022/05/18 08:04:20;;;;;;;37.85;8.13;;;;;;;12.54;66.06;101600.03;4934177;29;20111;-51
2022/05/18 08:06:46;;;;;;;36.58;7.22;;;;;;;12.40;66.58;101583.06;4939891;29;20047;-51
2022/05/18 08:09:12;;;;;;;27.10;7.43;;;;;;;12.38;66.82;101591.31;4941456;28;20481;-51
2022/05/18 08:17:08;;;;;;;32.65;7.68;;;;;;;12.60;66.39;101591.19;4941649;28;20515;-50
2022/05/18 08:19:34;;;;;;;34.88;7.78;;;;;;;12.63;66.22;101590.78;4947536;29;20397;-51
2022/05/18 08:22:01;;;;;;;32.08;6.53;;;;;;;12.48;66.73;101592.78;4950394;28;20027;-51
2022/05/18 08:24:27;;;;;;;30.92;6.95;;;;;;;12.45;67.11;101594.03;4951199;28;20114;-50
2022/05/18 08:26:53;;;;;;;31.33;7.68;;;;;;;12.65;66.07;101596.78;4951147;28;20507;-51
2022/05/18 08:29:19;;;;;;;29.27;7.10;;;;;;;12.66;66.11;101593.91;4943186;28;20031;-51
2022/05/18 08:31:45;;;;;;;29.50;7.05;;;;;;;12.62;66.12;101589.16;4935464;29;20051;-49
2022/05/18 08:34:12;;;;;;;31.42;6.78;;;;;;;12.66;65.90;101585.03;4939192;29;20035;-51
2022/05/18 08:36:38;;;;;;;32.75;7.55;;;;;;;12.77;65.85;101592.50;4939088;29;20118;-50
2022/05/18 08:39:05;;;;;;;31.75;7.93;;;;;;;12.74;65.75;101589.38;4943928;29;20068;-50
2022/05/18 08:41:40;;;;;;;30.33;7.35;;;;;;;12.78;66.06;101590.66;4953165;28;20038;-51
2022/05/18 08:44:07;;;;;;;;;;;;;;;12.69;65.95;101600.72;4949363;28;20487;-51
2022/05/18 08:46:50;;;;;;;30.30;6.85;;;;;;;12.61;66.43;101607.13;4943960;28;19965;-50
2022/05/18 08:49:46;;;;;;;26.30;7.30;;;;;;;12.55;66.82;101597.19;4948600;29;20032;-50
2022/05/18 08:52:27;;;;;;;33.38;8.15;;;;;;;12.71;66.56;101595.97;4939310;29;20392;-51
2022/05/18 08:55:16;;;;;;;34.10;7.43;;;;;;;12.68;66.53;101594.53;4937851;29;20042;-50
2022/05/18 08:57:45;;;;;;;26.38;7.40;;;;;;;12.72;66.59;101588.78;4937875;29;20114;-51
2022/05/18 09:00:21;;;;;;;32.50;8.40;;;;;;;12.38;68.04;101585.94;4945267;28;20500;-51
2022/05/18 09:03:11;;;;;;;35.35;7.82;;;;;;;12.40;68.08;101588.44;4949698;28;20039;-51
2022/05/18 09:05:45;;;;;;;31.73;8.13;;;;;;;12.51;67.83;101595.09;4935503;29;20112;-48
2022/05/18 09:08:29;;;;;;;35.38;6.95;;;;;;;12.53;67.94;101588.47;4939367;29;20125;-51
2022/05/18 09:11:01;;;;;;;28.20;6.78;;;;;;;12.63;67.33;101593.47;4941490;28;20485;-50
2022/05/18 09:13:28;;;;;;;38.67;7.45;;;;;;;12.52;67.53;101591.38;4937644;29;20039;-50
2022/05/18 09:16:00;;;;;;;28.10;7.05;;;;;;;12.45;68.10;101585.16;4935633;29;20045;-50
2022/05/18 09:19:06;;;;;;;33.97;8.93;;;;;;;12.56;66.93;101573.84;4946544;29;20035;-51
2022/05/18 09:21:53;;;;;;;26.13;7.03;;;;;;;12.66;66.87;101588.53;4944747;29;20361;-51
2022/05/18 09:24:43;;;;;;;42.72;7.53;;;;;;;12.51;67.02;101584.34;4935957;29;20489;-50
2022/05/18 09:27:43;;;;;;;38.13;6.65;;;;;;;12.28;68.24;101572.06;4951380;29;20083;-51
2022/05/18 09:30:12;;;;;;;32.97;8.32;;;;;;;12.11;68.95;101566.19;4953877;28;20038;-51
2022/05/18 09:32:58;;;;;;;30.55;8.00;;;;;;;12.24;68.54;101562.75;4937621;28;20031;-51
2022/05/18 09:35:34;;;;;;;32.72;7.45;;;;;;;12.11;69.00;101557.31;4937779;28;20031;-50
2022/05/18 09:38:17;;;;;;;37.65;7.57;;;;;;;12.30;68.48;101555.75;4939695;28;20117;-50
2022/05/18 09:40:48;;;;;;;31.38;7.53;;;;;;;12.26;68.44;101558.00;4936521;29;20109;-50
2022/05/18 09:43:28;;;;;;;25.52;6.53;;;;;;;11.97;69.95;101561.78;4934462;29;20031;-51
2022/05/18 09:45:56;;;;;;;23.63;6.90;;;;;;;12.01;70.00;101563.03;4937057;29;20386;-50
2022/05/18 09:48:29;;;;;;;32.70;6.90;;;;;;;12.02;69.81;101564.69;4937355;29;20097;-50
2022/05/18 09:50:56;;;;;;;34.50;8.00;;;;;;;12.11;69.57;101562.69;4946998;28;20039;-50
2022/05/18 09:53:23;;;;;;;28.23;7.75;;;;;;;12.08;69.41;101560.38;4950870;28;20039;-51
2022/05/18 09:55:50;;;;;;;40.88;7.03;;;;;;;11.99;69.73;101558.88;4954457;28;20070;-49
2022/05/18 09:58:39;;;;;;;31.27;7.97;;;;;;;12.12;70.01;101554.44;4954551;28;20035;-48
2022/05/18 10:09:41;;;;;;;29.35;7.53;;;;;;;12.37;68.56;101557.44;4954901;29;20037;-50
2022/05/18 10:12:22;;;;;;;28.40;7.20;;;;;;;12.43;68.24;101558.47;4953997;29;20094;-51
2022/05/18 10:15:02;;;;;;;22.13;6.57;;;;;;;12.39;68.08;101555.38;4953810;28;20043;-49
2022/05/18 10:17:34;;;;;;;34.47;7.88;;;;;;;12.27;69.03;101561.50;4948790;28;20071;-51
2022/05/18 10:20:11;;;;;;;26.45;6.80;;;;;;;12.34;68.87;101557.84;4941787;28;20023;-51
2022/05/18 10:22:44;;;;;;;29.52;7.57;;;;;;;12.33;69.00;101564.25;4954153;28;20031;-51
2022/05/18 10:25:47;;;;;;;36.88;7.50;;;;;;;12.24;69.50;101562.75;4953789;28;20030;-48
2022/05/18 10:28:23;;;;;;;27.88;7.50;;;;;;;12.40;69.21;101573.16;4953941;28;20031;-51
2022/05/18 10:31:07;;;;;;;30.63;8.07;;;;;;;12.29;69.14;101575.56;4954214;28;20028;-51
2022/05/18 10:33:38;;;;;;;27.55;7.28;;;;;;;12.28;69.72;101572.06;4953966;28;20090;-49
2022/05/18 10:36:11;;;;;;;43.60;9.30;;;;;;;12.31;69.86;101574.34;4946641;28;20374;-51
2022/05/18 10:38:54;;;;;;;34.13;7.03;;;;;;;11.99;70.69;101564.25;4953884;28;20066;-51
2022/05/18 10:41:27;;;;;;;31.23;7.40;;;;;;;11.84;71.36;101578.63;4951558;28;20058;-50
2022/05/18 10:44:11;;;;;;;35.03;7.75;;;;;;;11.90;71.12;101571.66;4952959;28;20392;-48
2022/05/18 10:46:44;;;;;;;26.80;7.65;;;;;;;11.81;70.84;101554.88;4955635;28;20055;-50
2022/05/18 10:49:31;;;;;;;35.60;8.18;;;;;;;11.78;70.59;101565.97;4944237;28;20122;-47
2022/05/18 10:52:16;;;;;;;31.67;7.43;;;;;;;11.95;69.36;101565.69;4952424;29;20648;-48
2022/05/18 10:55:14;;;;;;;29.13;7.38;;;;;;;11.96;68.39;101572.72;4947305;28;20027;-49
2022/05/18 10:57:52;;;;;;;32.08;6.88;;;;;;;12.05;67.66;101572.38;4931317;29;20473;-48
2022/05/18 11:00:20;;;;;;;27.38;6.97;;;;;;;12.01;67.34;101573.78;4946512;29;20054;-50
2022/05/18 11:03:08;;;;;;;25.27;7.30;;;;;;;11.97;66.79;101580.56;4945049;28;20132;-50
2022/05/18 11:05:44;;;;;;;25.75;7.32;;;;;;;12.07;66.09;101577.53;4945803;29;20500;-51
2022/05/18 11:08:14;;;;;;;30.00;6.95;;;;;;;11.99;66.02;101580.34;4945100;29;20098;-48
2022/05/18 11:11:03;;;;;;;26.05;6.68;;;;;;;11.91;66.26;101583.19;4963417;28;20098;-49
2022/05/18 11:13:54;;;;;;;32.88;6.70;;;;;;;11.96;66.31;101580.75;4935367;29;20510;-52
2022/05/18 11:16:41;;;;;;;36.75;8.27;;;;;;;11.76;67.16;101580.59;4935574;29;20024;-51
2022/05/18 11:19:25;;;;;;;22.10;6.38;;;;;;;11.75;67.29;101586.97;4946537;29;20078;-50
2022/05/18 11:22:19;;;;;;;31.52;7.93;;;;;;;11.77;67.28;101583.09;4954465;28;20035;-50
2022/05/18 11:25:03;;;;;;;33.65;7.40;;;;;;;11.68;68.15;101581.56;4954445;28;20034;-50
2022/05/18 11:27:43;;;;;;;34.08;7.47;;;;;;;11.68;67.61;101594.16;4954815;28;20039;-49
2022/05/18 11:30:18;;;;;;;27.98;7.05;;;;;;;11.70;67.79;101590.25;4952981;28;20565;-47
2022/05/18 11:33:01;;;;;;;35.10;8.75;;;;;;;11.87;67.39;101593.47;4944574;29;20118;-48
2022/05/18 11:35:34;;;;;;;32.65;7.85;;;;;;;11.81;67.41;101595.09;4954074;28;20043;-49
2022/05/18 11:38:13;;;;;;;29.50;6.70;;;;;;;11.78;67.57;101597.31;4953859;28;20396;-49
2022/05/18 11:40:44;;;;;;;32.63;7.40;;;;;;;11.67;67.97;101596.00;4954128;28;20038;-50
2022/05/18 11:43:25;;;;;;;28.27;7.03;;;;;;;11.73;67.89;101594.41;4952557;28;20034;-50
2022/05/18 11:46:14;;;;;;;32.88;7.70;;;;;;;11.71;67.86;101599.94;4940095;28;20043;-50
2022/05/18 11:48:45;;;;;;;38.08;7.53;;;;;;;11.74;67.60;101596.88;4950024;28;20035;-50
2022/05/18 11:51:33;;;;;;;35.25;7.43;;;;;;;11.80;67.45;101596.09;4964402;28;20031;-48
2022/05/18 11:54:20;;;;;;;30.08;7.55;;;;;;;11.72;67.95;101600.78;4959985;28;20037;-50